Time;durP1;ratioP1;P1;durP2;ratioP2;P2;SDS_P1;SDS_P2;PMS_P1;PMS_P2;Temp;Humidity;BMP_temperature;BMP_pressure;BME280_temperature;BME280_humidity;BME280_pressure;Samples;Min_cycle;Max_cycle;Signal;HPM_P1;HPM_P2
2021/09/21 00:00:56;;;;;;;;;;;;;;;;;;2089589;28;19967;-58
2021/09/21 00:01:57;;;;;;;;;;;;;;;;;;2087403;28;19963;-58
2021/09/21 00:02:58;;;;;;;;;;;;;;;;;;2089783;28;20332;-59
2021/09/21 00:03:59;;;;;;;;;;;;;;;;;;2089766;28;19921;-58
2021/09/21 00:04:59;;;;;;;;;;;;;;;;;;2086514;28;19925;-58
2021/09/21 00:06:00;;;;;;;;;;;;;;;;;;2089358;28;19925;-58
2021/09/21 00:07:02;;;;;;;;;;;;;;;;;;2089172;28;19927;-58
2021/09/21 00:08:03;;;;;;;;;;;;;;;;;;2086602;28;20004;-58
2021/09/21 00:09:04;;;;;;;;;;;;;;;;;;2081388;28;20290;-58
2021/09/21 00:10:04;;;;;;;;;;;;;;;;;;2082334;28;19947;-59
2021/09/21 00:11:05;;;;;;;;;;;;;;;;;;2086713;28;19928;-58
2021/09/21 00:12:06;;;;;;;;;;;;;;;;;;2089576;28;19920;-58
2021/09/21 00:13:07;;;;;;;;;;;;;;;;;;2089175;28;19966;-58
2021/09/21 00:14:08;;;;;;;;;;;;;;;;;;2085403;28;20011;-59
2021/09/21 00:15:09;;;;;;;;;;;;;;;;;;2081511;28;19921;-58
2021/09/21 00:16:09;;;;;;;;;;;;;;;;;;2083006;28;19925;-58
2021/09/21 00:17:10;;;;;;;;;;;;;;;;;;2085061;28;20393;-58
2021/09/21 00:18:11;;;;;;;;;;;;;;;;;;2081389;28;19921;-58
2021/09/21 00:19:12;;;;;;;;;;;;;;;;;;2083822;28;19921;-58
2021/09/21 00:20:12;;;;;;;;;;;;;;;;;;2088148;28;19921;-58
2021/09/21 00:21:13;;;;;;;;;;;;;;;;;;2089423;28;19924;-59
2021/09/21 00:22:14;;;;;;;;;;;;;;;;;;2088688;28;19929;-58
2021/09/21 00:23:15;;;;;;;;;;;;;;;;;;2088136;28;19921;-58
2021/09/21 00:24:16;;;;;;;;;;;;;;;;;;2089615;28;20325;-58
2021/09/21 00:25:17;;;;;;;;;;;;;;;;;;2088499;28;19927;-58
2021/09/21 00:26:17;;;;;;;;;;;;;;;;;;2083333;28;19951;-59
2021/09/21 00:27:18;;;;;;;;;;;;;;;;;;2081350;28;19921;-58
2021/09/21 00:28:19;;;;;;;;;;;;;;;;;;2085090;28;20259;-59
2021/09/21 00:29:20;;;;;;;;;;;;;;;;;;2088567;28;19932;-58
2021/09/21 00:30:21;;;;;;;;;;;;;;;;;;2089338;28;19921;-58
2021/09/21 00:31:22;;;;;;;;;;;;;;;;;;2088260;28;20011;-59
2021/09/21 00:32:25;;;;;;;;;;;;;;;;;;2088293;28;20303;-58
2021/09/21 00:33:26;;;;;;;;;;;;;;;;;;2089401;28;19990;-58
2021/09/21 00:34:28;;;;;;;;;;;;;;;;;;2087295;28;19943;-58
2021/09/21 00:35:29;;;;;;;;;;;;;;;;;;2089388;28;20003;-58
2021/09/21 00:36:29;;;;;;;;;;;;;;;;;;2089441;28;19924;-58
2021/09/21 00:37:30;;;;;;;;;;;;;;;;;;2088002;28;19921;-58
2021/09/21 00:38:31;;;;;;;;;;;;;;;;;;2089407;28;19920;-58
2021/09/21 00:39:32;;;;;;;;;;;;;;;;;;2089615;28;19921;-59
2021/09/21 00:40:33;;;;;;;;;;;;;;;;;;2087111;28;19990;-59
2021/09/21 00:41:33;;;;;;;;;;;;;;;;;;2089579;28;19927;-59
2021/09/21 00:42:34;;;;;;;;;;;;;;;;;;2089214;28;20221;-59
2021/09/21 00:43:39;;;;;;;;;;;;;;;;;;2086383;28;19964;-58
2021/09/21 00:44:40;;;;;;;;;;;;;;;;;;2081295;28;19928;-58
2021/09/21 00:45:41;;;;;;;;;;;;;;;;;;2082056;28;20135;-58
2021/09/21 00:46:41;;;;;;;;;;;;;;;;;;2084862;28;19940;-58
2021/09/21 00:47:42;;;;;;;;;;;;;;;;;;2081292;28;19921;-58
2021/09/21 00:48:43;;;;;;;;;;;;;;;;;;2082657;28;20076;-59
2021/09/21 00:49:44;;;;;;;;;;;;;;;;;;2085258;28;19921;-58
2021/09/21 00:50:45;;;;;;;;;;;;;;;;;;2079651;28;19925;-59
2021/09/21 00:51:46;;;;;;;;;;;;;;;;;;2082927;28;19994;-59
2021/09/21 00:52:46;;;;;;;;;;;;;;;;;;2087822;28;19927;-58
2021/09/21 00:53:47;;;;;;;;;;;;;;;;;;2089518;28;19927;-58
2021/09/21 00:54:48;;;;;;;;;;;;;;;;;;2088659;28;19921;-58
2021/09/21 00:55:49;;;;;;;;;;;;;;;;;;2087936;28;19960;-59
2021/09/21 00:56:49;;;;;;;;;;;;;;;;;;2089398;28;20317;-58
2021/09/21 00:57:50;;;;;;;;;;;;;;;;;;2088519;28;19975;-59
2021/09/21 00:58:51;;;;;;;;;;;;;;;;;;2087924;28;20392;-59
2021/09/21 00:59:52;;;;;;;;;;;;;;;;;;2089358;28;20328;-58
2021/09/21 01:00:53;;;;;;;;;;;;;;;;;;2088294;28;19921;-59
2021/09/21 01:01:54;;;;;;;;;;;;;;;;;;2083133;28;19956;-58
2021/09/21 01:02:55;;;;;;;;;;;;;;;;;;2081084;28;19964;-58
2021/09/21 01:03:56;;;;;;;;;;;;;;;;;;2086292;28;19928;-58
2021/09/21 01:04:57;;;;;;;;;;;;;;;;;;2084112;28;19921;-58
2021/09/21 01:05:57;;;;;;;;;;;;;;;;;;2082276;28;20259;-57
2021/09/21 01:06:58;;;;;;;;;;;;;;;;;;2086317;28;19925;-58
2021/09/21 01:07:59;;;;;;;;;;;;;;;;;;2089535;28;19928;-58
2021/09/21 01:09:00;;;;;;;;;;;;;;;;;;2090732;28;19925;-58
2021/09/21 01:10:01;;;;;;;;;;;;;;;;;;2089446;28;19936;-58
2021/09/21 01:11:02;;;;;;;;;;;;;;;;;;2082574;28;19924;-59
2021/09/21 01:12:03;;;;;;;;;;;;;;;;;;2082430;28;20366;-58
2021/09/21 01:13:04;;;;;;;;;;;;;;;;;;2086082;28;19974;-58
2021/09/21 01:14:04;;;;;;;;;;;;;;;;;;2082761;28;20322;-58
2021/09/21 01:15:05;;;;;;;;;;;;;;;;;;2083203;28;19975;-58
2021/09/21 01:16:06;;;;;;;;;;;;;;;;;;2086998;28;19921;-57
2021/09/21 01:17:07;;;;;;;;;;;;;;;;;;2082629;28;19921;-57
2021/09/21 01:18:08;;;;;;;;;;;;;;;;;;2083958;28;19921;-57
2021/09/21 01:19:09;;;;;;;;;;;;;;;;;;2086447;28;20100;-57
2021/09/21 01:20:09;;;;;;;;;;;;;;;;;;2082580;28;19925;-58
2021/09/21 01:21:10;;;;;;;;;;;;;;;;;;2084288;28;19925;-58
2021/09/21 01:22:11;;;;;;;;;;;;;;;;;;2086032;28;19920;-58
2021/09/21 01:23:12;;;;;;;;;;;;;;;;;;2082383;28;19968;-58
2021/09/21 01:24:12;;;;;;;;;;;;;;;;;;2084740;28;19927;-58
2021/09/21 01:25:13;;;;;;;;;;;;;;;;;;2089117;28;20054;-58
2021/09/21 01:26:14;;;;;;;;;;;;;;;;;;2090643;28;19929;-61
2021/09/21 01:27:15;;;;;;;;;;;;;;;;;;2089402;28;20359;-58
2021/09/21 01:28:16;;;;;;;;;;;;;;;;;;2084448;28;19921;-58
2021/09/21 01:29:17;;;;;;;;;;;;;;;;;;2082336;28;19921;-57
2021/09/21 01:30:17;;;;;;;;;;;;;;;;;;2085966;28;19939;-58
2021/09/21 01:31:18;;;;;;;;;;;;;;;;;;2084323;28;19921;-58
2021/09/21 01:32:21;;;;;;;;;;;;;;;;;;2082327;28;19928;-58
2021/09/21 01:33:22;;;;;;;;;;;;;;;;;;2086066;28;19957;-44
2021/09/21 01:34:23;;;;;;;;;;;;;;;;;;2090168;28;20289;-44
2021/09/21 01:35:24;;;;;;;;;;;;;;;;;;2090472;28;20285;-43
2021/09/21 01:36:24;;;;;;;;;;;;;;;;;;2088434;28;20340;-43
2021/09/21 01:37:27;;;;;;;;;;;;;;;;;;2090413;28;20370;-43
2021/09/21 01:38:28;;;;;;;;;;;;;;;;;;2090648;28;20003;-43
2021/09/21 01:39:28;;;;;;;;;;;;;;;;;;2089376;28;19928;-43
2021/09/21 01:40:29;;;;;;;;;;;;;;;;;;2082314;28;19967;-44
2021/09/21 01:41:30;;;;;;;;;;;;;;;;;;2082331;28;20382;-44
2021/09/21 01:42:31;;;;;;;;;;;;;;;;;;2087833;28;19935;-43
2021/09/21 01:43:32;;;;;;;;;;;;;;;;;;2082379;28;19925;-43
2021/09/21 01:44:32;;;;;;;;;;;;;;;;;;2082214;28;20301;-43
2021/09/21 01:45:33;;;;;;;;;;;;;;;;;;2087999;28;20067;-43
2021/09/21 01:46:34;;;;;;;;;;;;;;;;;;2090497;28;19924;-43
2021/09/21 01:47:35;;;;;;;;;;;;;;;;;;2090067;28;20381;-44
2021/09/21 01:48:36;;;;;;;;;;;;;;;;;;2088612;28;19935;-43
2021/09/21 01:49:43;;;;;;;;;;;;;;;;;;2090488;28;19924;-43
2021/09/21 01:50:49;;;;;;;;;;;;;;;;;;2087362;28;19975;-43
2021/09/21 01:51:56;;;;;;;;;;;;;;;;;;2088057;28;20004;-43
2021/09/21 01:53:00;;;;;;;;;;;;;;;;;;2090535;28;20046;-43
2021/09/21 01:54:14;;;;;;;;;;;;;;;;;;2089467;28;20003;-44
2021/09/21 01:55:22;;;;;;;;;;;;;;;;;;2089727;28;20011;-43
2021/09/21 01:59:01;;;;;;;;;;;;;;;;;;2090601;28;20015;-43
2021/09/21 02:00:02;;;;;;;;;;;;;;;;;;2089004;28;19925;-43
2021/09/21 02:01:03;;;;;;;;;;;;;;;;;;2082228;28;19960;-43
2021/09/21 02:02:04;;;;;;;;;;;;;;;;;;2082206;28;19971;-44
2021/09/21 02:03:05;;;;;;;;;;;;;;;;;;2087949;28;20004;-43
2021/09/21 02:04:08;;;;;;;;;;;;;;;;;;2082277;28;19921;-43
2021/09/21 02:05:08;;;;;;;;;;;;;;;;;;2082148;28;20418;-43
2021/09/21 02:06:10;;;;;;;;;;;;;;;;;;2087552;28;19925;-44
2021/09/21 02:07:10;;;;;;;;;;;;;;;;;;2082263;28;20007;-43
2021/09/21 02:08:11;;;;;;;;;;;;;;;;;;2082767;28;20268;-43
2021/09/21 02:09:12;;;;;;;;;;;;;;;;;;2088344;28;19921;-43
2021/09/21 02:10:13;;;;;;;;;;;;;;;;;;2090325;28;19951;-43
2021/09/21 02:11:14;;;;;;;;;;;;;;;;;;2089771;28;19925;-43
2021/09/21 02:12:15;;;;;;;;;;;;;;;;;;2086509;28;20329;-43
2021/09/21 02:13:15;;;;;;;;;;;;;;;;;;2082108;28;19928;-43
2021/09/21 02:14:18;;;;;;;;;;;;;;;;;;2083866;28;19921;-43
2021/09/21 02:15:20;;;;;;;;;;;;;;;;;;2087013;28;20384;-43
2021/09/21 02:16:21;;;;;;;;;;;;;;;;;;2090417;28;20011;-43
2021/09/21 02:17:22;;;;;;;;;;;;;;;;;;2089613;28;20259;-43
2021/09/21 02:18:23;;;;;;;;;;;;;;;;;;2088700;28;19927;-43
2021/09/21 02:19:23;;;;;;;;;;;;;;;;;;2090310;28;19927;-43
2021/09/21 02:20:24;;;;;;;;;;;;;;;;;;2089272;28;19995;-43
2021/09/21 02:21:25;;;;;;;;;;;;;;;;;;2084373;28;20334;-43
2021/09/21 02:22:26;;;;;;;;;;;;;;;;;;2081998;28;19921;-44
2021/09/21 02:23:27;;;;;;;;;;;;;;;;;;2084812;28;19924;-43
2021/09/21 02:24:28;;;;;;;;;;;;;;;;;;2083011;28;19963;-43
2021/09/21 02:25:28;;;;;;;;;;;;;;;;;;2081981;28;19925;-43
2021/09/21 02:26:29;;;;;;;;;;;;;;;;;;2085767;28;19936;-43
2021/09/21 02:27:30;;;;;;;;;;;;;;;;;;2089594;28;19931;-43
2021/09/21 02:28:31;;;;;;;;;;;;;;;;;;2090337;28;19921;-43
2021/09/21 02:29:32;;;;;;;;;;;;;;;;;;2089014;28;19928;-43
2021/09/21 02:30:32;;;;;;;;;;;;;;;;;;2082915;28;19921;-43
2021/09/21 02:31:33;;;;;;;;;;;;;;;;;;2081976;28;20307;-43
2021/09/21 02:32:34;;;;;;;;;;;;;;;;;;2087282;28;19999;-43
2021/09/21 02:33:35;;;;;;;;;;;;;;;;;;2082070;28;20260;-44
2021/09/21 02:34:36;;;;;;;;;;;;;;;;;;2082072;28;19971;-43
2021/09/21 02:35:37;;;;;;;;;;;;;;;;;;2086723;28;20273;-44
2021/09/21 02:36:41;;;;;;;;;;;;;;;;;;2090318;28;20576;-43
2021/09/21 02:37:41;;;;;;;;;;;;;;;;;;2090051;28;19947;-43
2021/09/21 02:38:42;;;;;;;;;;;;;;;;;;2087739;28;19921;-43
2021/09/21 02:39:43;;;;;;;;;;;;;;;;;;2090199;28;20331;-43
2021/09/21 02:40:44;;;;;;;;;;;;;;;;;;2089632;28;19921;-43
2021/09/21 02:41:44;;;;;;;;;;;;;;;;;;2087455;28;20582;-43
2021/09/21 02:42:45;;;;;;;;;;;;;;;;;;2081925;28;20393;-43
2021/09/21 02:43:46;;;;;;;;;;;;;;;;;;2082632;28;19921;-43
2021/09/21 02:44:47;;;;;;;;;;;;;;;;;;2088020;28;19920;-43
2021/09/21 02:45:48;;;;;;;;;;;;;;;;;;2090151;28;19928;-44
2021/09/21 02:46:50;;;;;;;;;;;;;;;;;;2089619;28;19921;-43
2021/09/21 02:47:51;;;;;;;;;;;;;;;;;;2088004;28;19966;-43
2021/09/21 02:48:52;;;;;;;;;;;;;;;;;;2090232;28;19920;-44
2021/09/21 02:49:53;;;;;;;;;;;;;;;;;;2089545;28;20377;-43
2021/09/21 02:50:54;;;;;;;;;;;;;;;;;;2083033;28;19921;-44
2021/09/21 02:51:54;;;;;;;;;;;;;;;;;;2082017;28;19929;-43
2021/09/21 02:52:55;;;;;;;;;;;;;;;;;;2084160;28;20272;-43
2021/09/21 02:53:56;;;;;;;;;;;;;;;;;;2087802;28;19970;-43
2021/09/21 02:54:57;;;;;;;;;;;;;;;;;;2090036;28;19924;-43
2021/09/21 02:55:58;;;;;;;;;;;;;;;;;;2088988;28;19966;-43
2021/09/21 02:56:59;;;;;;;;;;;;;;;;;;2084698;28;19952;-43
2021/09/21 02:57:59;;;;;;;;;;;;;;;;;;2081864;28;19967;-43
2021/09/21 02:59:00;;;;;;;;;;;;;;;;;;2084337;28;19924;-43
2021/09/21 03:00:01;;;;;;;;;;;;;;;;;;2089486;28;20365;-43
2021/09/21 03:01:02;;;;;;;;;;;;;;;;;;2089979;28;20007;-44
2021/09/21 03:02:03;;;;;;;;;;;;;;;;;;2089006;28;20271;-43
2021/09/21 03:03:05;;;;;;;;;;;;;;;;;;2083353;28;19932;-43
2021/09/21 03:04:12;;;;;;;;;;;;;;;;;;2081897;28;19956;-44
2021/09/21 03:05:16;;;;;;;;;;;;;;;;;;2087227;28;20019;-44
2021/09/21 03:06:23;;;;;;;;;;;;;;;;;;2081867;28;19990;-43
2021/09/21 03:07:35;;;;;;;;;;;;;;;;;;2081335;28;19921;-43
2021/09/21 03:08:37;;;;;;;;;;;;;;;;;;2085489;28;20545;-43
2021/09/21 03:09:52;;;;;;;;;;;;;;;;;;2081670;28;20460;-43
2021/09/21 03:11:07;;;;;;;;;;;;;;;;;;2085096;28;19920;-44
2021/09/21 03:12:22;;;;;;;;;;;;;;;;;;2089469;28;19924;-43
2021/09/21 03:13:46;;;;;;;;;;;;;;;;;;2089537;28;19921;-44
2021/09/21 03:17:26;;;;;;;;;;;;;;;;;;2087733;28;19932;-43
2021/09/21 03:18:27;;;;;;;;;;;;;;;;;;2089829;28;19943;-43
2021/09/21 03:19:27;;;;;;;;;;;;;;;;;;2089253;28;19921;-43
2021/09/21 03:20:28;;;;;;;;;;;;;;;;;;2088175;28;20247;-43
2021/09/21 03:21:29;;;;;;;;;;;;;;;;;;2089959;28;19955;-44
2021/09/21 03:22:30;;;;;;;;;;;;;;;;;;2089334;28;19928;-43
2021/09/21 03:23:31;;;;;;;;;;;;;;;;;;2088051;28;19967;-43
2021/09/21 03:24:33;;;;;;;;;;;;;;;;;;2090064;28;19931;-43
2021/09/21 03:25:33;;;;;;;;;;;;;;;;;;2089004;28;20011;-44
2021/09/21 03:26:34;;;;;;;;;;;;;;;;;;2087546;28;19928;-48
2021/09/21 03:27:35;;;;;;;;;;;;;;;;;;2089431;28;19921;-44
2021/09/21 03:28:36;;;;;;;;;;;;;;;;;;2088973;28;20289;-43
2021/09/21 03:29:36;;;;;;;;;;;;;;;;;;2088521;28;19975;-44
2021/09/21 03:30:37;;;;;;;;;;;;;;;;;;2089830;28;19920;-43
2021/09/21 03:31:38;;;;;;;;;;;;;;;;;;2089000;28;19929;-43
2021/09/21 03:32:39;;;;;;;;;;;;;;;;;;2088360;28;19960;-44
2021/09/21 03:33:40;;;;;;;;;;;;;;;;;;2089971;28;19932;-43
2021/09/21 03:34:45;;;;;;;;;;;;;;;;;;2088138;28;19947;-44
2021/09/21 03:35:45;;;;;;;;;;;;;;;;;;2089322;28;19925;-44
2021/09/21 03:36:46;;;;;;;;;;;;;;;;;;2089791;28;19927;-43
2021/09/21 03:37:47;;;;;;;;;;;;;;;;;;2088655;28;19924;-44
2021/09/21 03:38:48;;;;;;;;;;;;;;;;;;2082174;28;19935;-44
2021/09/21 03:39:48;;;;;;;;;;;;;;;;;;2081679;28;19922;-43
2021/09/21 03:40:49;;;;;;;;;;;;;;;;;;2086873;28;19920;-43
2021/09/21 03:41:50;;;;;;;;;;;;;;;;;;2081642;28;20370;-43
2021/09/21 03:42:51;;;;;;;;;;;;;;;;;;2081649;28;19921;-43
2021/09/21 03:43:52;;;;;;;;;;;;;;;;;;2086320;28;20317;-44
2021/09/21 03:44:53;;;;;;;;;;;;;;;;;;2089699;28;19921;-43
2021/09/21 03:45:53;;;;;;;;;;;;;;;;;;2089683;28;19921;-43
2021/09/21 03:46:54;;;;;;;;;;;;;;;;;;2087516;28;19921;-43
2021/09/21 03:47:55;;;;;;;;;;;;;;;;;;2089643;28;20418;-43
2021/09/21 03:48:56;;;;;;;;;;;;;;;;;;2089261;28;19921;-43
2021/09/21 03:49:57;;;;;;;;;;;;;;;;;;2087770;28;20003;-43
2021/09/21 03:50:58;;;;;;;;;;;;;;;;;;2083520;28;20003;-43
2021/09/21 03:51:59;;;;;;;;;;;;;;;;;;2081950;28;19983;-43
2021/09/21 03:53:00;;;;;;;;;;;;;;;;;;2087675;28;19921;-43
2021/09/21 03:54:00;;;;;;;;;;;;;;;;;;2089990;28;19925;-44
2021/09/21 03:55:03;;;;;;;;;;;;;;;;;;2089355;28;20425;-43
2021/09/21 03:56:04;;;;;;;;;;;;;;;;;;2085181;28;20041;-43
2021/09/21 03:57:04;;;;;;;;;;;;;;;;;;2081358;28;19928;-43
2021/09/21 03:58:06;;;;;;;;;;;;;;;;;;2083215;28;19925;-43
2021/09/21 03:59:07;;;;;;;;;;;;;;;;;;2085317;28;19999;-43
2021/09/21 04:00:08;;;;;;;;;;;;;;;;;;2081384;28;20288;-43
2021/09/21 04:01:08;;;;;;;;;;;;;;;;;;2083358;28;19925;-43
2021/09/21 04:02:10;;;;;;;;;;;;;;;;;;2088290;28;19921;-43
2021/09/21 04:03:10;;;;;;;;;;;;;;;;;;2089777;28;19960;-44
2021/09/21 04:04:11;;;;;;;;;;;;;;;;;;2088687;28;19983;-43
2021/09/21 04:05:12;;;;;;;;;;;;;;;;;;2083268;28;19925;-44
2021/09/21 04:06:13;;;;;;;;;;;;;;;;;;2081295;28;19921;-43
2021/09/21 04:07:14;;;;;;;;;;;;;;;;;;2084781;28;20009;-44
2021/09/21 04:08:15;;;;;;;;;;;;;;;;;;2088065;28;19931;-44
2021/09/21 04:09:15;;;;;;;;;;;;;;;;;;2089522;28;20016;-44
2021/09/21 04:10:16;;;;;;;;;;;;;;;;;;2088499;28;20016;-44
2021/09/21 04:11:17;;;;;;;;;;;;;;;;;;2083262;28;19921;-44
2021/09/21 04:12:18;;;;;;;;;;;;;;;;;;2081417;28;19921;-44
2021/09/21 04:13:19;;;;;;;;;;;;;;;;;;2085816;28;19925;-44
2021/09/21 04:14:20;;;;;;;;;;;;;;;;;;2082541;28;20410;-47
2021/09/21 04:15:20;;;;;;;;;;;;;;;;;;2081308;28;19931;-44
2021/09/21 04:16:21;;;;;;;;;;;;;;;;;;2085539;28;19959;-44
2021/09/21 04:17:22;;;;;;;;;;;;;;;;;;2089412;28;19921;-44
2021/09/21 04:18:23;;;;;;;;;;;;;;;;;;2089663;28;20278;-44
2021/09/21 04:19:24;;;;;;;;;;;;;;;;;;2087336;28;19928;-43
2021/09/21 04:20:26;;;;;;;;;;;;;;;;;;2089446;28;19921;-43
2021/09/21 04:21:26;;;;;;;;;;;;;;;;;;2089540;28;20063;-49
2021/09/21 04:22:27;;;;;;;;;;;;;;;;;;2087263;28;20974;-44
2021/09/21 04:23:28;;;;;;;;;;;;;;;;;;2089948;28;19921;-43
2021/09/21 04:24:29;;;;;;;;;;;;;;;;;;2089589;28;19921;-43
2021/09/21 04:25:30;;;;;;;;;;;;;;;;;;2087079;28;19928;-43
2021/09/21 04:26:31;;;;;;;;;;;;;;;;;;2081307;28;20441;-43
2021/09/21 04:27:33;;;;;;;;;;;;;;;;;;2081163;28;19921;-43
2021/09/21 04:28:34;;;;;;;;;;;;;;;;;;2087614;28;20008;-43
2021/09/21 04:29:34;;;;;;;;;;;;;;;;;;2089651;28;19921;-43
2021/09/21 04:30:35;;;;;;;;;;;;;;;;;;2088867;28;19928;-44
2021/09/21 04:31:38;;;;;;;;;;;;;;;;;;2084237;28;19928;-43
2021/09/21 04:32:39;;;;;;;;;;;;;;;;;;2081341;28;20046;-43
2021/09/21 04:33:40;;;;;;;;;;;;;;;;;;2084336;28;19932;-42
2021/09/21 04:34:41;;;;;;;;;;;;;;;;;;2083525;28;19931;-43
2021/09/21 04:35:42;;;;;;;;;;;;;;;;;;2081109;28;19921;-43
2021/09/21 04:36:43;;;;;;;;;;;;;;;;;;2084928;28;19920;-43
2021/09/21 04:37:43;;;;;;;;;;;;;;;;;;2088324;28;19927;-43
2021/09/21 04:38:44;;;;;;;;;;;;;;;;;;2090763;28;19920;-43
2021/09/21 04:39:45;;;;;;;;;;;;;;;;;;2089204;28;19971;-43
2021/09/21 04:40:46;;;;;;;;;;;;;;;;;;2090335;28;19927;-43
2021/09/21 04:41:47;;;;;;;;;;;;;;;;;;2091031;28;20115;-43
2021/09/21 04:42:48;;;;;;;;;;;;;;;;;;2088647;28;20014;-43
2021/09/21 04:43:48;;;;;;;;;;;;;;;;;;2090772;28;19971;-42
2021/09/21 04:44:49;;;;;;;;;;;;;;;;;;2091014;28;19971;-42
2021/09/21 04:45:50;;;;;;;;;;;;;;;;;;2088636;28;19925;-42
2021/09/21 04:46:51;;;;;;;;;;;;;;;;;;2090754;28;19967;-43
2021/09/21 04:47:52;;;;;;;;;;;;;;;;;;2090861;28;20266;-43
2021/09/21 04:48:53;;;;;;;;;;;;;;;;;;2088859;28;19921;-42
2021/09/21 04:49:53;;;;;;;;;;;;;;;;;;2082723;28;19925;-44
2021/09/21 04:50:54;;;;;;;;;;;;;;;;;;2081046;28;19921;-46
2021/09/21 04:51:55;;;;;;;;;;;;;;;;;;2088230;28;19967;-45
2021/09/21 04:52:56;;;;;;;;;;;;;;;;;;2090992;28;20305;-44
2021/09/21 04:53:57;;;;;;;;;;;;;;;;;;2090428;28;19921;-43
2021/09/21 04:54:57;;;;;;;;;;;;;;;;;;2088265;28;19928;-43
2021/09/21 04:55:58;;;;;;;;;;;;;;;;;;2082527;28;19971;-43
2021/09/21 04:56:59;;;;;;;;;;;;;;;;;;2082878;28;19921;-42
2021/09/21 04:58:00;;;;;;;;;;;;;;;;;;2088828;28;19925;-42
2021/09/21 04:59:01;;;;;;;;;;;;;;;;;;2090903;28;19924;-42
2021/09/21 05:00:03;;;;;;;;;;;;;;;;;;2090290;28;20016;-43
2021/09/21 05:01:04;;;;;;;;;;;;;;;;;;2088355;28;20329;-42
2021/09/21 05:02:05;;;;;;;;;;;;;;;;;;2090851;28;20005;-43
2021/09/21 05:03:06;;;;;;;;;;;;;;;;;;2090124;28;20382;-42
2021/09/21 05:04:07;;;;;;;;;;;;;;;;;;2086320;28;19921;-42
2021/09/21 05:05:08;;;;;;;;;;;;;;;;;;2082572;28;19921;-42
2021/09/21 05:06:09;;;;;;;;;;;;;;;;;;2084662;28;20022;-44
2021/09/21 05:07:10;;;;;;;;;;;;;;;;;;2088641;28;19924;-44
2021/09/21 05:08:10;;;;;;;;;;;;;;;;;;2090686;28;19925;-43
2021/09/21 05:09:12;;;;;;;;;;;;;;;;;;2089831;28;20431;-44
2021/09/21 05:10:13;;;;;;;;;;;;;;;;;;2084572;28;20016;-43
2021/09/21 05:11:14;;;;;;;;;;;;;;;;;;2082380;28;19925;-44
2021/09/21 05:12:14;;;;;;;;;;;;;;;;;;2085543;28;19928;-44
2021/09/21 05:13:15;;;;;;;;;;;;;;;;;;2088615;28;19970;-43
2021/09/21 05:14:16;;;;;;;;;;;;;;;;;;2090870;28;19925;-44
2021/09/21 05:15:17;;;;;;;;;;;;;;;;;;2089616;28;20358;-42
2021/09/21 05:16:18;;;;;;;;;;;;;;;;;;2089739;28;20366;-44
2021/09/21 05:17:19;;;;;;;;;;;;;;;;;;2090715;28;20402;-42
2021/09/21 05:18:20;;;;;;;;;;;;;;;;;;2088745;28;20029;-44
2021/09/21 05:19:21;;;;;;;;;;;;;;;;;;2090607;28;20267;-42
2021/09/21 05:20:21;;;;;;;;;;;;;;;;;;2090590;28;19920;-42
2021/09/21 05:21:22;;;;;;;;;;;;;;;;;;2089433;28;19920;-44
2021/09/21 05:22:23;;;;;;;;;;;;;;;;;;2082943;28;19921;-44
2021/09/21 05:23:27;;;;;;;;;;;;;;;;;;2082416;28;19959;-44
2021/09/21 05:24:28;;;;;;;;;;;;;;;;;;2086320;28;19920;-44
2021/09/21 05:25:28;;;;;;;;;;;;;;;;;;2090682;28;19967;-44
2021/09/21 05:26:29;;;;;;;;;;;;;;;;;;2090790;28;19920;-44
2021/09/21 05:27:30;;;;;;;;;;;;;;;;;;2088396;28;20416;-44
2021/09/21 05:28:31;;;;;;;;;;;;;;;;;;2082388;28;19921;-42
2021/09/21 05:29:34;;;;;;;;;;;;;;;;;;2082191;28;19929;-44
2021/09/21 05:30:34;;;;;;;;;;;;;;;;;;2087951;28;19929;-45
2021/09/21 05:31:35;;;;;;;;;;;;;;;;;;2082390;28;20397;-44
2021/09/21 05:32:36;;;;;;;;;;;;;;;;;;2082763;28;20055;-44
2021/09/21 05:33:37;;;;;;;;;;;;;;;;;;2087969;28;20343;-45
2021/09/21 05:34:38;;;;;;;;;;;;;;;;;;2090676;28;19925;-43
2021/09/21 05:35:39;;;;;;;;;;;;;;;;;;2089898;28;20408;-45
2021/09/21 05:36:40;;;;;;;;;;;;;;;;;;2088886;28;19932;-44
2021/09/21 05:37:40;;;;;;;;;;;;;;;;;;2090685;28;19929;-44
2021/09/21 05:38:41;;;;;;;;;;;;;;;;;;2090004;28;20011;-42
2021/09/21 05:39:42;;;;;;;;;;;;;;;;;;2088772;28;19921;-44
2021/09/21 05:40:43;;;;;;;;;;;;;;;;;;2090402;28;19920;-44
2021/09/21 05:41:44;;;;;;;;;;;;;;;;;;2089632;28;20443;-44
2021/09/21 05:42:45;;;;;;;;;;;;;;;;;;2085913;28;19928;-44
2021/09/21 05:43:45;;;;;;;;;;;;;;;;;;2082290;28;20298;-44
2021/09/21 05:44:46;;;;;;;;;;;;;;;;;;2084831;28;19960;-44
2021/09/21 05:45:47;;;;;;;;;;;;;;;;;;2085227;28;19921;-44
2021/09/21 05:46:48;;;;;;;;;;;;;;;;;;2082224;28;19921;-44
2021/09/21 05:47:49;;;;;;;;;;;;;;;;;;2085199;28;20006;-44
2021/09/21 05:48:52;;;;;;;;;;;;;;;;;;2084743;28;20004;-44
2021/09/21 05:49:52;;;;;;;;;;;;;;;;;;2081251;28;19966;-44
2021/09/21 05:50:53;;;;;;;;;;;;;;;;;;2083745;28;19921;-44
2021/09/21 05:51:54;;;;;;;;;;;;;;;;;;2083853;28;19921;-44
2021/09/21 05:52:56;;;;;;;;;;;;;;;;;;2082331;28;20470;-44
2021/09/21 05:53:57;;;;;;;;;;;;;;;;;;2085816;28;19928;-44
2021/09/21 05:54:58;;;;;;;;;;;;;;;;;;2090178;28;19921;-44
2021/09/21 05:55:59;;;;;;;;;;;;;;;;;;2090466;28;19927;-45
2021/09/21 05:56:59;;;;;;;;;;;;;;;;;;2088325;28;19928;-44
2021/09/21 05:58:00;;;;;;;;;;;;;;;;;;2090272;28;19968;-44
2021/09/21 05:59:02;;;;;;;;;;;;;;;;;;2090419;28;20400;-44
2021/09/21 06:00:03;;;;;;;;;;;;;;;;;;2088144;28;19943;-44
2021/09/21 06:01:04;;;;;;;;;;;;;;;;;;2090257;28;20362;-44
2021/09/21 06:02:05;;;;;;;;;;;;;;;;;;2090523;28;19921;-44
2021/09/21 06:03:06;;;;;;;;;;;;;;;;;;2088016;28;19921;-44
2021/09/21 06:04:08;;;;;;;;;;;;;;;;;;2082343;28;19928;-44
2021/09/21 06:05:09;;;;;;;;;;;;;;;;;;2081836;28;19967;-44
2021/09/21 06:06:10;;;;;;;;;;;;;;;;;;2088318;28;19993;-44
2021/09/21 06:07:11;;;;;;;;;;;;;;;;;;2090396;28;19928;-44
2021/09/21 06:08:12;;;;;;;;;;;;;;;;;;2089926;28;19935;-44
2021/09/21 06:09:13;;;;;;;;;;;;;;;;;;2088389;28;19921;-44
2021/09/21 06:10:14;;;;;;;;;;;;;;;;;;2090281;28;19924;-44
2021/09/21 06:11:20;;;;;;;;;;;;;;;;;;2089833;28;19924;-44
2021/09/21 06:12:21;;;;;;;;;;;;;;;;;;2086208;28;20019;-44
2021/09/21 06:13:21;;;;;;;;;;;;;;;;;;2082054;28;19921;-44
2021/09/21 06:14:22;;;;;;;;;;;;;;;;;;2084105;28;19928;-44
2021/09/21 06:15:23;;;;;;;;;;;;;;;;;;2085696;28;20294;-44
2021/09/21 06:16:24;;;;;;;;;;;;;;;;;;2082034;28;19928;-44
2021/09/21 06:17:25;;;;;;;;;;;;;;;;;;2084725;28;20059;-44
2021/09/21 06:18:26;;;;;;;;;;;;;;;;;;2088729;28;19921;-44
2021/09/21 06:19:26;;;;;;;;;;;;;;;;;;2090321;28;19927;-44
2021/09/21 06:20:27;;;;;;;;;;;;;;;;;;2089473;28;19971;-44
2021/09/21 06:21:28;;;;;;;;;;;;;;;;;;2084418;28;20433;-43
2021/09/21 06:22:29;;;;;;;;;;;;;;;;;;2082048;28;20290;-43
2021/09/21 06:23:29;;;;;;;;;;;;;;;;;;2085783;28;19920;-44
2021/09/21 06:24:30;;;;;;;;;;;;;;;;;;2089073;28;20324;-43
2021/09/21 06:25:31;;;;;;;;;;;;;;;;;;2090250;28;19920;-43
2021/09/21 06:26:32;;;;;;;;;;;;;;;;;;2089151;28;19928;-43
2021/09/21 06:27:34;;;;;;;;;;;;;;;;;;2083419;28;20003;-43
2021/09/21 06:28:35;;;;;;;;;;;;;;;;;;2082221;28;19968;-60
2021/09/21 06:29:36;;;;;;;;;;;;;;;;;;2085877;28;19920;-60
2021/09/21 06:30:37;;;;;;;;;;;;;;;;;;2089918;28;19955;-59
2021/09/21 06:31:37;;;;;;;;;;;;;;;;;;2090405;28;19920;-60
2021/09/21 06:32:38;;;;;;;;;;;;;;;;;;2087943;28;19924;-60
2021/09/21 06:33:40;;;;;;;;;;;;;;;;;;2090129;28;19921;-61
2021/09/21 06:34:40;;;;;;;;;;;;;;;;;;2090122;28;19929;-61
2021/09/21 06:35:41;;;;;;;;;;;;;;;;;;2088416;28;19921;-59
2021/09/21 06:36:42;;;;;;;;;;;;;;;;;;2081875;28;19920;-61
2021/09/21 06:37:43;;;;;;;;;;;;;;;;;;2082102;28;19967;-59
2021/09/21 06:38:44;;;;;;;;;;;;;;;;;;2087627;28;20282;-59
2021/09/21 06:39:45;;;;;;;;;;;;;;;;;;2081913;28;19929;-60
2021/09/21 06:40:45;;;;;;;;;;;;;;;;;;2081772;28;19932;-59
2021/09/21 06:41:46;;;;;;;;;;;;;;;;;;2088234;28;20286;-60
2021/09/21 06:42:48;;;;;;;;;;;;;;;;;;2090305;28;19920;-44
2021/09/21 06:43:49;;;;;;;;;;;;;;;;;;2089693;28;20016;-44
2021/09/21 06:44:50;;;;;;;;;;;;;;;;;;2086804;28;20293;-44
2021/09/21 06:45:55;;;;;;;;;;;;;;;;;;2081830;28;19925;-44
2021/09/21 06:46:56;;;;;;;;;;;;;;;;;;2083606;28;19928;-44
2021/09/21 06:47:57;;;;;;;;;;;;;;;;;;2085705;28;19928;-44
2021/09/21 06:48:57;;;;;;;;;;;;;;;;;;2081870;28;19921;-44
2021/09/21 06:49:58;;;;;;;;;;;;;;;;;;2083774;28;19986;-43
2021/09/21 06:50:59;;;;;;;;;;;;;;;;;;2086390;28;19920;-44
2021/09/21 06:52:00;;;;;;;;;;;;;;;;;;2090197;28;20408;-44
2021/09/21 06:53:01;;;;;;;;;;;;;;;;;;2089244;28;19921;-44
2021/09/21 06:54:01;;;;;;;;;;;;;;;;;;2084777;28;20377;-44
2021/09/21 06:55:03;;;;;;;;;;;;;;;;;;2081771;28;19968;-44
2021/09/21 06:56:04;;;;;;;;;;;;;;;;;;2085095;28;20011;-44
2021/09/21 06:57:05;;;;;;;;;;;;;;;;;;2082264;28;20393;-44
2021/09/21 06:58:05;;;;;;;;;;;;;;;;;;2081854;28;20246;-44
2021/09/21 06:59:06;;;;;;;;;;;;;;;;;;2086432;28;19925;-44
2021/09/21 07:00:08;;;;;;;;;;;;;;;;;;2081988;28;20363;-44
2021/09/21 07:01:09;;;;;;;;;;;;;;;;;;2081624;28;20011;-44
2021/09/21 07:02:10;;;;;;;;;;;;;;;;;;2086980;28;19921;-44
2021/09/21 07:03:11;;;;;;;;;;;;;;;;;;2090096;28;19925;-43
2021/09/21 07:04:13;;;;;;;;;;;;;;;;;;2090212;28;19921;-44